createdAt,value
2022-09-23T00:02:16.779Z,11.27
2022-09-23T00:04:46.726Z,11.23
2022-09-23T00:07:16.338Z,11.20
2022-09-23T00:09:44.734Z,11.18
2022-09-23T00:12:13.012Z,11.16
2022-09-23T00:14:41.523Z,11.11
2022-09-23T00:17:09.878Z,11.06
2022-09-23T00:19:40.162Z,11.02
2022-09-23T00:22:08.914Z,10.98
2022-09-23T00:24:39.874Z,10.94
2022-09-23T00:27:08.113Z,10.90
2022-09-23T00:29:36.921Z,10.82
2022-09-23T00:32:05.941Z,10.82
2022-09-23T00:34:34.536Z,10.82
2022-09-23T00:37:02.862Z,10.77
2022-09-23T00:39:31.554Z,10.71
2022-09-23T00:42:01.434Z,10.69
2022-09-23T00:44:49.231Z,10.69
2022-09-23T00:47:23.602Z,10.66
2022-09-23T00:50:00.351Z,10.69
2022-09-23T00:52:29.169Z,10.71
2022-09-23T00:55:01.186Z,10.66
2022-09-23T00:57:31.635Z,10.64
2022-09-23T01:00:00.797Z,10.61
2022-09-23T01:02:29.693Z,10.58
2022-09-23T01:04:58.254Z,10.57
2022-09-23T01:07:27.211Z,10.54
2022-09-23T01:09:55.682Z,10.50
2022-09-23T01:12:54.499Z,10.46
2022-09-23T01:15:31.267Z,10.46
2022-09-23T01:18:11.549Z,10.44
2022-09-23T01:20:59.307Z,10.38
2022-09-23T01:24:23.322Z,10.35
2022-09-23T01:27:00.953Z,10.32
2022-09-23T01:30:06.466Z,10.28
2022-09-23T01:32:47.509Z,10.25
2022-09-23T01:35:30.381Z,10.25
2022-09-23T01:38:12.686Z,10.21
2022-09-23T01:40:49.656Z,10.18
2022-09-23T01:43:24.876Z,10.13
2022-09-23T01:45:57.962Z,10.07
2022-09-23T01:48:33.375Z,10.04
2022-09-23T01:51:08.214Z,10.01
2022-09-23T01:53:46.452Z,9.99
2022-09-23T01:56:20.941Z,9.96
2022-09-23T01:58:58.192Z,9.94
2022-09-23T02:01:37.658Z,9.92
2022-09-23T02:04:11.482Z,9.89
2022-09-23T02:06:46.559Z,9.85
2022-09-23T02:09:19.981Z,9.82
2022-09-23T02:11:52.532Z,9.80
2022-09-23T02:14:26.023Z,9.76
2022-09-23T02:16:58.414Z,9.76
2022-09-23T02:19:33.285Z,9.78
2022-09-23T02:22:04.985Z,9.70
2022-09-23T02:24:38.983Z,9.73
2022-09-23T02:27:20.250Z,9.68
2022-09-23T02:29:55.588Z,9.66
2022-09-23T02:32:32.973Z,9.64
2022-09-23T02:35:12.130Z,9.60
2022-09-23T02:37:47.547Z,9.57
2022-09-23T02:40:23.872Z,9.53
2022-09-23T02:43:07.860Z,9.44
2022-09-23T02:45:39.146Z,9.40
2022-09-23T02:48:13.593Z,9.39
2022-09-23T02:50:43.827Z,9.37
2022-09-23T02:53:12.377Z,9.33
2022-09-23T02:55:42.325Z,9.30
2022-09-23T02:58:13.406Z,9.25
2022-09-23T03:00:55.238Z,9.25
2022-09-23T03:03:40.871Z,9.22
2022-09-23T03:06:31.617Z,9.19
2022-09-23T03:09:06.003Z,9.16
2022-09-23T03:11:39.977Z,9.14
2022-09-23T03:14:18.142Z,9.12
2022-09-23T03:16:53.785Z,9.11
2022-09-23T03:19:29.604Z,9.09
2022-09-23T03:22:07.019Z,9.03
2022-09-23T03:24:39.489Z,9.01
2022-09-23T03:27:13.780Z,8.99
2022-09-23T03:29:47.251Z,8.97
2022-09-23T03:32:18.227Z,8.98
2022-09-23T03:34:51.371Z,8.93
2022-09-23T03:37:30.155Z,8.89
2022-09-23T03:40:06.520Z,8.89
2022-09-23T03:42:36.484Z,8.85
2022-09-23T03:45:09.274Z,8.82
2022-09-23T03:47:39.319Z,8.80
2022-09-23T03:50:08.851Z,8.77
2022-09-23T03:52:39.716Z,8.75
2022-09-23T03:55:09.942Z,8.75
2022-09-23T03:57:38.415Z,8.77
2022-09-23T04:00:09.302Z,8.79
2022-09-23T04:02:41.022Z,8.80
2022-09-23T04:05:11.379Z,8.78
2022-09-23T04:07:41.145Z,8.75
2022-09-23T04:10:11.288Z,8.73
2022-09-23T04:12:39.970Z,8.70
2022-09-23T04:15:09.496Z,8.65
2022-09-23T04:17:37.926Z,8.63
2022-09-23T04:20:07.470Z,8.57
2022-09-23T04:22:37.697Z,8.53
2022-09-23T04:25:09.282Z,8.47
2022-09-23T04:27:38.030Z,8.45
2022-09-23T04:30:07.947Z,8.41
2022-09-23T04:32:36.334Z,8.38
2022-09-23T04:35:05.659Z,8.33
2022-09-23T04:37:34.025Z,8.30
2022-09-23T04:40:03.163Z,8.27
2022-09-23T04:42:33.072Z,8.24
2022-09-23T04:45:01.511Z,8.18
2022-09-23T04:47:32.535Z,8.11
2022-09-23T04:50:00.816Z,8.02
2022-09-23T04:52:31.232Z,8.01
2022-09-23T04:54:59.497Z,8.00
2022-09-23T04:57:28.224Z,7.98
2022-09-23T04:59:57.860Z,7.97
2022-09-23T05:02:26.302Z,7.94
2022-09-23T05:04:54.957Z,7.84
2022-09-23T05:07:23.521Z,7.77
2022-09-23T05:09:51.829Z,7.70
2022-09-23T05:12:20.179Z,7.65
2022-09-23T05:14:48.457Z,7.60
2022-09-23T05:17:18.241Z,7.53
2022-09-23T05:19:46.914Z,7.52
2022-09-23T05:22:15.380Z,7.55
2022-09-23T05:24:43.827Z,7.55
2022-09-23T05:27:12.106Z,7.55
2022-09-23T05:29:41.092Z,7.52
2022-09-23T05:32:09.750Z,7.50
2022-09-23T05:34:39.788Z,7.48
2022-09-23T05:37:08.254Z,7.46
2022-09-23T05:39:36.820Z,7.45
2022-09-23T05:42:05.913Z,7.46
2022-09-23T05:44:34.204Z,7.49
2022-09-23T05:47:02.700Z,7.51
2022-09-23T05:49:55.196Z,7.53
2022-09-23T05:52:20.833Z,7.56
2022-09-23T05:54:49.872Z,7.55
2022-09-23T05:57:18.998Z,7.60
2022-09-23T05:59:47.735Z,7.57
2022-09-23T06:02:16.363Z,7.63
2022-09-23T06:04:45.474Z,7.61
2022-09-23T06:07:13.905Z,7.63
2022-09-23T06:09:44.012Z,7.67
2022-09-23T06:12:14.157Z,7.72
2022-09-23T06:14:42.590Z,7.73
2022-09-23T06:17:10.951Z,7.71
2022-09-23T06:19:39.487Z,7.72
2022-09-23T06:22:07.776Z,7.75
2022-09-23T06:24:36.303Z,7.79
2022-09-23T06:27:06.759Z,7.81
2022-09-23T06:29:35.032Z,7.84
2022-09-23T06:32:05.163Z,7.90
2022-09-23T06:34:46.248Z,7.92
2022-09-23T06:37:20.686Z,7.96
2022-09-23T06:39:49.581Z,7.98
2022-09-23T06:42:19.386Z,8.01
2022-09-23T06:44:47.946Z,8.04
2022-09-23T06:47:16.264Z,8.08
2022-09-23T06:49:44.787Z,8.14
2022-09-23T06:52:13.059Z,8.23
2022-09-23T06:54:41.529Z,8.27
2022-09-23T06:57:10.303Z,8.31
2022-09-23T06:59:40.060Z,8.47
2022-09-23T07:02:09.454Z,8.49
2022-09-23T07:04:37.949Z,8.52
2022-09-23T07:07:06.374Z,8.63
2022-09-23T07:09:34.938Z,8.73
2022-09-23T07:12:03.797Z,8.75
2022-09-23T07:14:32.171Z,8.83
2022-09-23T07:17:02.022Z,8.87
2022-09-23T07:19:30.469Z,8.95
2022-09-23T07:21:59.156Z,9.02
2022-09-23T07:24:27.917Z,9.09
2022-09-23T07:26:56.390Z,9.17
2022-09-23T07:29:24.875Z,9.17
2022-09-23T07:31:55.750Z,9.25
2022-09-23T07:34:30.291Z,9.31
2022-09-23T07:36:59.079Z,9.37
2022-09-23T07:39:27.680Z,9.40
2022-09-23T07:41:56.157Z,9.45
2022-09-23T07:44:25.501Z,9.54
2022-09-23T07:46:54.386Z,9.64
2022-09-23T07:49:22.652Z,9.74
2022-09-23T07:51:52.849Z,9.81
2022-09-23T07:54:22.303Z,9.88
2022-09-23T07:56:50.668Z,9.95
2022-09-23T07:59:20.116Z,9.92
2022-09-23T08:01:52.552Z,10.01
2022-09-23T08:04:24.195Z,10.12
2022-09-23T08:06:56.666Z,10.15
2022-09-23T08:09:28.029Z,10.26
2022-09-23T08:11:56.818Z,10.28
2022-09-23T08:14:25.262Z,10.34
2022-09-23T08:16:54.143Z,10.36
2022-09-23T08:19:22.516Z,10.34
2022-09-23T08:21:54.434Z,10.41
2022-09-23T08:24:24.510Z,10.41
2022-09-23T08:26:54.699Z,10.42
2022-09-23T08:29:25.780Z,10.48
2022-09-23T08:31:55.532Z,10.47
2022-09-23T08:34:25.044Z,10.46
2022-09-23T08:36:54.882Z,10.50
2022-09-23T08:39:23.785Z,10.56
2022-09-23T08:42:08.892Z,10.64
2022-09-23T08:44:48.697Z,10.71
2022-09-23T08:47:23.637Z,10.70
2022-09-23T08:49:56.800Z,10.74
2022-09-23T08:52:34.597Z,10.81
2022-09-23T08:55:03.773Z,10.84
2022-09-23T08:57:42.734Z,10.93
2022-09-23T09:00:21.547Z,10.95
2022-09-23T09:02:51.092Z,11.01
2022-09-23T09:05:27.490Z,11.01
2022-09-23T09:08:00.036Z,11.03
2022-09-23T09:10:35.276Z,11.10
2022-09-23T09:13:07.845Z,11.22
2022-09-23T09:15:43.197Z,11.29
2022-09-23T09:18:16.520Z,11.35
2022-09-23T09:20:57.078Z,11.43
2022-09-23T09:23:36.136Z,11.55
2022-09-23T09:26:07.201Z,11.63
2022-09-23T09:28:42.370Z,11.70
2022-09-23T09:31:25.550Z,11.78
2022-09-23T09:33:58.976Z,11.84
2022-09-23T09:36:38.955Z,11.81
2022-09-23T09:39:13.384Z,11.90
2022-09-23T09:41:46.824Z,11.94
2022-09-23T09:44:25.176Z,11.92
2022-09-23T09:47:12.302Z,11.92
2022-09-23T09:49:47.830Z,12.16
2022-09-23T09:52:23.476Z,12.16
2022-09-23T09:54:56.137Z,12.20
2022-09-23T09:57:36.088Z,12.20
2022-09-23T10:00:34.775Z,12.34
2022-09-23T10:03:09.123Z,12.40
2022-09-23T10:05:52.372Z,12.37
2022-09-23T10:08:28.591Z,12.38
2022-09-23T10:11:05.506Z,12.43
2022-09-23T10:13:33.849Z,12.60
2022-09-23T10:16:04.200Z,12.76
2022-09-23T10:18:35.921Z,12.79
2022-09-23T10:21:09.749Z,12.82
2022-09-23T10:23:42.739Z,12.85
2022-09-23T10:26:15.177Z,12.96
2022-09-23T10:28:50.251Z,13.06
2022-09-23T10:31:26.944Z,13.22
2022-09-23T10:33:59.719Z,13.28
2022-09-23T10:36:29.688Z,13.27
2022-09-23T10:39:20.586Z,13.35
2022-09-23T10:42:17.654Z,13.31
2022-09-23T10:45:20.807Z,13.34
2022-09-23T10:47:57.626Z,13.34
2022-09-23T10:50:38.329Z,13.40
2022-09-23T10:53:18.947Z,13.53
2022-09-23T10:56:09.352Z,13.67
2022-09-23T10:59:18.573Z,13.82
2022-09-23T11:01:59.190Z,13.86
2022-09-23T11:04:55.222Z,13.91
2022-09-23T11:07:37.269Z,13.98
2022-09-23T11:11:01.537Z,13.99
2022-09-23T11:14:04.390Z,14.22
2022-09-23T11:16:49.302Z,14.45
2022-09-23T11:19:57.799Z,14.63
2022-09-23T11:22:46.091Z,14.71
2022-09-23T11:25:38.155Z,14.75
2022-09-23T11:28:37.619Z,14.72
2022-09-23T11:31:21.979Z,14.69
2022-09-23T11:34:12.242Z,14.73
2022-09-23T11:36:45.800Z,14.89
2022-09-23T11:39:19.220Z,15.10
2022-09-23T11:41:48.315Z,15.29
2022-09-23T11:44:22.314Z,15.52
2022-09-23T11:46:57.060Z,15.71
2022-09-23T11:49:29.782Z,15.88
2022-09-23T11:52:07.937Z,16.05
2022-09-23T11:54:45.214Z,16.26
2022-09-23T11:57:24.091Z,16.44
2022-09-23T11:59:59.937Z,16.63
2022-09-23T12:02:34.709Z,16.84
2022-09-23T12:05:09.414Z,16.94
2022-09-23T12:07:51.356Z,17.17
2022-09-23T12:10:20.258Z,17.31
2022-09-23T12:12:57.056Z,17.47
2022-09-23T12:15:41.587Z,17.69
2022-09-23T12:18:35.732Z,17.80
2022-09-23T12:21:51.247Z,18.04
2022-09-23T12:24:42.010Z,18.20
2022-09-23T12:27:22.898Z,18.39
2022-09-23T12:29:57.180Z,18.56
2022-09-23T12:32:26.500Z,18.65
2022-09-23T12:34:55.123Z,18.73
2022-09-23T12:37:33.929Z,18.76
2022-09-23T12:40:09.738Z,18.87
2022-09-23T12:42:45.946Z,19.00
2022-09-23T12:45:34.743Z,19.09
2022-09-23T12:48:04.919Z,19.21
2022-09-23T12:50:55.317Z,19.40
2022-09-23T12:53:57.221Z,19.52
2022-09-23T12:57:01.676Z,19.76
2022-09-23T12:59:33.441Z,19.91
2022-09-23T13:02:30.139Z,20.10
2022-09-23T13:05:28.670Z,20.20
2022-09-23T13:08:03.718Z,20.24
2022-09-23T13:10:38.376Z,20.39
2022-09-23T13:13:08.361Z,20.58
2022-09-23T13:15:38.526Z,20.66
2022-09-23T13:18:51.377Z,20.75
2022-09-23T13:22:07.846Z,20.89
2022-09-23T13:24:40.569Z,21.03
2022-09-23T13:27:28.140Z,21.19
2022-09-23T13:30:07.674Z,21.36
2022-09-23T13:32:40.895Z,21.51
2022-09-23T13:35:20.125Z,21.59
2022-09-23T13:37:50.600Z,21.63
2022-09-23T13:40:24.447Z,21.62
2022-09-23T13:42:59.108Z,21.68
2022-09-23T13:45:30.885Z,21.68
2022-09-23T13:48:05.872Z,21.68
2022-09-23T13:50:38.363Z,21.55
2022-09-23T13:53:12.246Z,21.54
2022-09-23T13:55:41.387Z,21.57
2022-09-23T13:58:21.209Z,21.64
2022-09-23T14:00:51.074Z,21.79
2022-09-23T14:03:26.669Z,21.92
2022-09-23T14:05:56.938Z,22.05
2022-09-23T14:08:29.630Z,22.23
2022-09-23T14:10:59.887Z,22.38
2022-09-23T14:13:32.145Z,22.58
2022-09-23T14:16:04.126Z,22.82
2022-09-23T14:18:37.372Z,23.02
2022-09-23T14:21:06.603Z,23.14
2022-09-23T14:23:36.348Z,23.20
2022-09-23T14:26:04.942Z,23.21
2022-09-23T14:28:34.077Z,23.32
2022-09-23T14:31:05.529Z,23.43
2022-09-23T14:33:35.388Z,23.49
2022-09-23T14:36:28.934Z,23.47
2022-09-23T14:39:04.702Z,23.52
2022-09-23T14:41:38.243Z,23.49
2022-09-23T14:44:08.585Z,23.42
2022-09-23T14:46:40.014Z,23.30
2022-09-23T14:49:17.471Z,23.17
2022-09-23T14:51:53.394Z,23.08
2022-09-23T14:54:36.767Z,23.05
2022-09-23T14:57:25.777Z,22.97
2022-09-23T14:59:56.638Z,22.89
2022-09-23T15:02:34.843Z,22.94
2022-09-23T15:05:31.952Z,23.00
2022-09-23T15:08:03.950Z,22.97
2022-09-23T15:10:38.431Z,22.90
2022-09-23T15:13:08.726Z,22.84
2022-09-23T15:15:37.911Z,22.81
2022-09-23T15:18:12.446Z,22.68
2022-09-23T15:20:40.919Z,22.63
2022-09-23T15:23:35.041Z,22.68
2022-09-23T15:26:13.144Z,22.67
2022-09-23T15:28:42.404Z,22.55
2022-09-23T15:31:12.796Z,22.45
2022-09-23T15:33:41.267Z,22.35
2022-09-23T15:36:17.183Z,22.28
2022-09-23T15:38:45.969Z,22.20
2022-09-23T15:41:17.252Z,22.10
2022-09-23T15:43:46.818Z,22.05
2022-09-23T15:46:20.553Z,22.05
2022-09-23T15:48:58.628Z,21.99
2022-09-23T15:51:28.646Z,21.95
2022-09-23T15:53:57.433Z,21.89
2022-09-23T15:56:27.557Z,21.81
2022-09-23T15:58:55.840Z,21.73
2022-09-23T16:01:29.223Z,21.66
2022-09-23T16:04:01.035Z,21.63
2022-09-23T16:06:29.626Z,21.55
2022-09-23T16:08:58.166Z,21.51
2022-09-23T16:11:31.746Z,21.45
2022-09-23T16:14:00.749Z,21.41
2022-09-23T16:16:29.692Z,21.32
2022-09-23T16:18:58.168Z,21.25
2022-09-23T16:21:28.576Z,21.18
2022-09-23T16:23:59.310Z,21.12
2022-09-23T16:26:31.964Z,21.08
2022-09-23T16:29:01.471Z,21.03
2022-09-23T16:31:31.258Z,20.96
2022-09-23T16:34:02.050Z,20.90
2022-09-23T16:36:33.467Z,20.80
2022-09-23T16:39:05.444Z,20.72
2022-09-23T16:41:35.669Z,20.67
2022-09-23T16:44:07.258Z,20.60
2022-09-23T16:46:36.404Z,20.52
2022-09-23T16:49:05.757Z,20.45
2022-09-23T16:51:38.285Z,20.38
2022-09-23T16:54:11.144Z,20.33
2022-09-23T16:56:44.991Z,20.26
2022-09-23T16:59:14.643Z,20.18
2022-09-23T17:02:00.838Z,20.10
2022-09-23T17:04:29.365Z,20.03
2022-09-23T17:06:57.881Z,19.98
2022-09-23T17:09:28.897Z,19.91
2022-09-23T17:12:09.101Z,19.86
2022-09-23T17:14:37.355Z,19.82
2022-09-23T17:17:06.645Z,19.75
2022-09-23T17:19:35.625Z,19.68
2022-09-23T17:22:03.865Z,19.60
2022-09-23T17:24:32.158Z,19.53
2022-09-23T17:27:01.846Z,19.46
2022-09-23T17:29:30.501Z,19.38
2022-09-23T17:31:59.010Z,19.33
2022-09-23T17:34:28.799Z,19.25
2022-09-23T17:36:57.133Z,19.19
2022-09-23T17:39:25.798Z,19.15
2022-09-23T17:41:56.062Z,19.07
2022-09-23T17:44:26.354Z,19.01
2022-09-23T17:46:54.620Z,18.93
2022-09-23T17:49:24.183Z,18.88
2022-09-23T17:51:52.608Z,18.80
2022-09-23T17:54:20.937Z,18.74
2022-09-23T17:56:49.367Z,18.69
2022-09-23T17:59:17.726Z,18.62
2022-09-23T18:01:47.993Z,18.57
2022-09-23T18:04:16.575Z,18.49
2022-09-23T18:06:45.588Z,18.47
2022-09-23T18:09:15.215Z,18.40
2022-09-23T18:11:46.858Z,18.32
2022-09-23T18:14:18.415Z,18.26
2022-09-23T18:16:50.461Z,18.21
2022-09-23T18:19:20.926Z,18.17
2022-09-23T18:21:52.084Z,18.11
2022-09-23T18:24:31.758Z,18.05
2022-09-23T18:27:01.618Z,17.99
2022-09-23T18:29:30.118Z,17.95
2022-09-23T18:32:00.166Z,17.92
2022-09-23T18:34:28.607Z,17.87
2022-09-23T18:36:57.243Z,17.81
2022-09-23T18:39:26.157Z,17.75
2022-09-23T18:41:54.782Z,17.71
2022-09-23T18:44:23.437Z,17.65
2022-09-23T18:46:52.037Z,17.61
2022-09-23T18:49:39.427Z,17.59
2022-09-23T18:52:08.040Z,17.53
2022-09-23T18:54:36.409Z,17.47
2022-09-23T18:57:05.243Z,17.42
2022-09-23T18:59:33.611Z,17.39
2022-09-23T19:02:02.077Z,17.35
2022-09-23T19:04:31.875Z,17.32
2022-09-23T19:07:00.254Z,17.29
2022-09-23T19:09:28.843Z,17.26
2022-09-23T19:11:57.384Z,17.24
2022-09-23T19:14:26.403Z,17.21
2022-09-23T19:16:54.855Z,17.21
2022-09-23T19:19:23.156Z,17.14
2022-09-23T19:21:52.997Z,17.09
2022-09-23T19:24:21.566Z,17.05
2022-09-23T19:26:50.352Z,17.02
2022-09-23T19:29:21.752Z,16.96
2022-09-23T19:31:51.156Z,16.90
2022-09-23T19:34:23.918Z,16.88
2022-09-23T19:36:56.216Z,16.82
2022-09-23T19:39:27.106Z,16.79
2022-09-23T19:41:56.543Z,16.80
2022-09-23T19:44:27.267Z,16.82
2022-09-23T19:46:57.399Z,16.80
2022-09-23T19:49:26.740Z,16.77
2022-09-23T19:51:56.890Z,16.72
2022-09-23T19:54:27.482Z,16.63
2022-09-23T19:56:56.911Z,16.58
2022-09-23T19:59:26.288Z,16.53
2022-09-23T20:01:55.189Z,16.47
2022-09-23T20:04:23.739Z,16.42
2022-09-23T20:06:52.084Z,16.37
2022-09-23T20:09:23.087Z,16.32
2022-09-23T20:11:52.186Z,16.28
2022-09-23T20:14:20.774Z,16.25
2022-09-23T20:16:50.247Z,16.21
2022-09-23T20:19:19.214Z,16.16
2022-09-23T20:22:07.823Z,16.13
2022-09-23T20:24:37.611Z,16.08
2022-09-23T20:27:11.109Z,16.06
2022-09-23T20:29:41.994Z,15.98
2022-09-23T20:32:11.470Z,15.92
2022-09-23T20:34:46.570Z,15.88
2022-09-23T20:37:17.598Z,15.85
2022-09-23T20:39:48.906Z,15.81
2022-09-23T20:42:19.337Z,15.78
2022-09-23T20:44:48.543Z,15.74
2022-09-23T20:47:19.321Z,15.73
2022-09-23T20:49:51.529Z,15.68
2022-09-23T20:52:24.931Z,15.65
2022-09-23T20:54:54.940Z,15.59
2022-09-23T20:57:24.989Z,15.56
2022-09-23T20:59:54.593Z,15.51
2022-09-23T21:02:25.666Z,15.48
2022-09-23T21:04:58.622Z,15.43
2022-09-23T21:07:31.120Z,15.36
2022-09-23T21:10:04.800Z,15.32
2022-09-23T21:12:33.228Z,15.29
2022-09-23T21:15:01.527Z,15.24
2022-09-23T21:17:33.605Z,15.21
2022-09-23T21:20:02.173Z,15.15
2022-09-23T21:22:30.689Z,15.16
2022-09-23T21:27:53.967Z,15.10
2022-09-23T21:30:22.938Z,15.05
2022-09-23T21:32:51.502Z,15.07
2022-09-23T21:35:19.880Z,15.02
2022-09-23T21:37:48.394Z,14.99
2022-09-23T21:40:34.635Z,14.93
2022-09-23T21:43:04.462Z,14.90
2022-09-23T21:45:32.941Z,14.88
2022-09-23T21:48:01.478Z,14.87
2022-09-23T21:50:30.085Z,14.82
2022-09-23T21:53:01.188Z,14.81
2022-09-23T21:55:29.622Z,14.80
2022-09-23T21:58:00.133Z,14.80
2022-09-23T22:00:32.935Z,14.76
2022-09-23T22:03:01.487Z,14.68
2022-09-23T22:05:29.877Z,14.63
2022-09-23T22:08:00.520Z,14.61
2022-09-23T22:10:29.084Z,14.57
2022-09-23T22:13:00.442Z,14.54
2022-09-23T22:15:34.397Z,14.51
2022-09-23T22:18:02.833Z,14.49
2022-09-23T22:20:31.746Z,14.44
2022-09-23T22:23:01.804Z,14.44
2022-09-23T22:25:30.120Z,14.41
2022-09-23T22:28:30.635Z,14.38
2022-09-23T22:31:18.074Z,14.37
2022-09-23T22:33:46.630Z,14.32
2022-09-23T22:36:14.835Z,14.27
2022-09-23T22:38:43.129Z,14.25
2022-09-23T22:41:13.923Z,14.18
2022-09-23T22:43:42.142Z,14.12
2022-09-23T22:46:11.819Z,14.09
2022-09-23T22:48:40.164Z,14.07
2022-09-23T22:51:08.612Z,14.05
2022-09-23T22:53:37.204Z,14.04
2022-09-23T22:56:05.476Z,14.00
2022-09-23T22:58:33.737Z,13.98
2022-09-23T23:01:02.483Z,13.95
2022-09-23T23:03:34.273Z,13.92
2022-09-23T23:06:03.569Z,13.93
2022-09-23T23:08:32.523Z,13.90
2022-09-23T23:11:05.877Z,13.88
2022-09-23T23:13:34.227Z,13.85
2022-09-23T23:16:06.481Z,13.86
2022-09-23T23:18:38.881Z,13.83
2022-09-23T23:21:09.856Z,13.83
2022-09-23T23:23:40.277Z,13.81
2022-09-23T23:26:11.888Z,13.77
2022-09-23T23:28:40.685Z,13.74
2022-09-23T23:31:11.687Z,13.73
2022-09-23T23:33:41.939Z,13.69
2022-09-23T23:36:12.278Z,13.67
2022-09-23T23:38:42.873Z,13.65
2022-09-23T23:41:13.873Z,13.63
2022-09-23T23:43:44.198Z,13.61
2022-09-23T23:46:13.057Z,13.62
2022-09-23T23:48:48.195Z,13.60
2022-09-23T23:51:17.149Z,13.55
2022-09-23T23:53:45.651Z,13.54
2022-09-23T23:56:17.466Z,13.50
2022-09-23T23:58:46.194Z,13.49
